Time;durP1;ratioP1;P1;durP2;ratioP2;P2;SDS_P1;SDS_P2;PMS_P1;PMS_P2;Temp;Humidity;BMP_temperature;BMP_pressure;BME280_temperature;BME280_humidity;BME280_pressure;Samples;Min_cycle;Max_cycle;Signal;HPM_P1;HPM_P2
2021/03/06 00:01:26;;;;;;;30.08;19.33;;;;;;;9.28;71.40;100322.22;5082461;28;20020;-76
2021/03/06 00:03:53;;;;;;;31.50;20.08;;;;;;;9.35;70.79;100322.94;5080593;28;20039;-76
2021/03/06 00:06:20;;;;;;;29.33;18.88;;;;;;;9.44;70.83;100328.72;5081149;28;20081;-76
2021/03/06 00:08:47;;;;;;;63.97;34.10;;;;;;;9.50;70.73;100333.69;5064624;28;20174;-76
2021/03/06 00:11:12;;;;;;;31.33;20.27;;;;;;;9.37;71.11;100332.19;5062684;28;20154;-75
2021/03/06 00:13:43;;;;;;;45.33;24.70;;;;;;;9.53;70.46;100353.06;5063185;28;20508;-75
2021/03/06 00:16:08;;;;;;;43.55;25.02;;;;;;;9.14;71.76;100347.00;5064150;28;20032;-75
2021/03/06 00:18:43;;;;;;;46.70;27.73;;;;;;;9.30;70.59;100345.03;5062442;28;20056;-76
2021/03/06 00:21:08;;;;;;;40.97;28.38;;;;;;;9.16;71.58;100352.03;5062483;28;20024;-76
2021/03/06 00:23:34;;;;;;;47.67;27.83;;;;;;;9.07;71.52;100357.25;5081711;28;20020;-77
2021/03/06 00:26:00;;;;;;;40.47;26.35;;;;;;;9.24;70.94;100355.28;5083153;28;20031;-76
2021/03/06 00:28:27;;;;;;;41.08;27.23;;;;;;;8.98;72.63;100370.06;5063901;28;20025;-75
2021/03/06 00:30:53;;;;;;;41.10;26.20;;;;;;;8.77;72.86;100355.19;5065509;28;20398;-76
2021/03/06 00:33:18;;;;;;;41.75;26.48;;;;;;;9.40;70.37;100365.16;5064851;28;20031;-76
2021/03/06 00:35:45;;;;;;;38.15;25.02;;;;;;;9.12;71.91;100352.94;5081584;28;20019;-76
2021/03/06 00:38:18;;;;;;;37.67;24.98;;;;;;;9.28;71.58;100357.75;5081624;28;20528;-76
2021/03/06 00:40:43;;;;;;;40.88;24.55;;;;;;;9.09;72.04;100361.41;5081860;28;20047;-76
2021/03/06 00:43:13;;;;;;;36.72;23.98;;;;;;;9.03;72.28;100360.69;5065598;28;20486;-76
2021/03/06 00:45:38;;;;;;;40.08;24.70;;;;;;;9.40;70.57;100364.31;5061363;28;20069;-76
2021/03/06 00:48:07;;;;;;;49.08;29.77;;;;;;;8.91;72.97;100371.88;5060157;28;20410;-76
2021/03/06 00:50:35;;;;;;;47.53;30.05;;;;;;;8.89;72.89;100362.59;5062044;28;20025;-76
2021/03/06 00:53:01;;;;;;;48.05;29.80;;;;;;;9.03;73.30;100368.31;5061292;28;20040;-76
2021/03/06 00:55:27;;;;;;;43.65;28.80;;;;;;;8.94;71.68;100335.47;5060126;28;20025;-76
2021/03/06 00:57:52;;;;;;;47.05;28.65;;;;;;;9.21;71.38;100348.53;5062683;28;20021;-76
2021/03/06 01:00:23;;;;;;;44.17;27.15;;;;;;;9.26;71.51;100377.22;5062553;28;20020;-76
2021/03/06 01:02:51;;;;;;;44.42;29.30;;;;;;;9.16;71.81;100375.69;5059479;28;20025;-76
2021/03/06 01:05:16;;;;;;;49.15;29.70;;;;;;;8.85;72.68;100361.81;5061979;28;20025;-75
2021/03/06 01:07:43;;;;;;;46.67;26.60;;;;;;;9.06;72.58;100371.63;5061011;28;20032;-75
2021/03/06 01:10:24;;;;;;;43.35;27.85;;;;;;;8.82;73.18;100373.69;5059655;28;20025;-76
2021/03/06 01:13:01;;;;;;;48.45;27.88;;;;;;;9.05;72.56;100372.47;5066925;28;20558;-75
2021/03/06 01:15:50;;;;;;;41.58;26.67;;;;;;;9.01;72.89;100375.09;5073313;28;20032;-75
2021/03/06 01:18:29;;;;;;;43.90;27.45;;;;;;;8.56;74.56;100374.91;5073178;28;20107;-75
2021/03/06 01:21:00;;;;;;;40.15;26.88;;;;;;;9.12;72.27;100366.47;5073290;28;20068;-75
2021/03/06 01:23:41;;;;;;;49.50;28.98;;;;;;;8.71;73.64;100379.75;5072206;28;20036;-75
2021/03/06 01:26:21;;;;;;;48.40;29.60;;;;;;;8.65;74.32;100359.59;5073243;28;20111;-75
2021/03/06 01:29:11;;;;;;;57.05;33.88;;;;;;;8.85;73.46;100378.72;5073094;28;20575;-75
2021/03/06 01:31:44;;;;;;;43.72;28.83;;;;;;;8.79;74.05;100373.75;5071984;28;20029;-76
2021/03/06 01:34:13;;;;;;;50.15;29.45;;;;;;;8.88;73.45;100368.53;5072985;28;20025;-75
2021/03/06 01:37:12;;;;;;;45.42;28.98;;;;;;;8.76;74.02;100392.34;5071677;28;20028;-75
2021/03/06 01:39:37;;;;;;;42.20;27.58;;;;;;;8.75;73.39;100358.56;5072666;28;20039;-75
2021/03/06 01:42:36;;;;;;;42.90;28.13;;;;;;;8.55;75.11;100385.91;5072935;28;20024;-75
2021/03/06 01:45:03;;;;;;;33.92;23.50;;;;;;;8.63;74.67;100351.16;5073642;28;20035;-75
2021/03/06 01:47:35;;;;;;;38.05;24.40;;;;;;;8.55;75.43;100377.47;5093326;28;20129;-76
2021/03/06 01:53:35;;;;;;;36.50;23.00;;;;;;;8.82;74.56;100349.19;5093130;28;20039;-75
2021/03/06 01:56:16;;;;;;;35.08;22.77;;;;;;;8.52;75.86;100367.34;5074960;28;20036;-76
2021/03/06 01:58:57;;;;;;;37.33;24.05;;;;;;;8.23;76.71;100364.31;5075039;28;20060;-76
2021/03/06 02:01:37;;;;;;;31.67;21.42;;;;;;;8.28;76.33;100365.97;5092891;28;20032;-76
2021/03/06 02:04:10;;;;;;;34.03;20.90;;;;;;;8.65;74.83;100359.59;5092903;28;20024;-76
2021/03/06 02:06:58;;;;;;;31.70;21.25;;;;;;;8.58;74.78;100374.88;5092578;28;20052;-75
2021/03/06 02:09:42;;;;;;;29.45;20.40;;;;;;;8.24;76.53;100366.84;5074713;28;20513;-75
2021/03/06 02:12:35;;;;;;;31.17;20.42;;;;;;;8.45;75.84;100363.22;5074107;28;20039;-75
2021/03/06 02:15:34;;;;;;;34.85;20.92;;;;;;;8.44;75.78;100372.53;5092631;28;20097;-75
2021/03/06 02:18:37;;;;;;;30.90;20.85;;;;;;;8.46;75.49;100368.28;5074243;28;20113;-76
2021/03/06 02:21:37;;;;;;;32.72;21.42;;;;;;;8.57;75.51;100376.59;5074160;28;20114;-76
2021/03/06 02:24:24;;;;;;;34.28;21.70;;;;;;;8.57;74.86;100368.97;5074479;28;20039;-76
2021/03/06 02:27:21;;;;;;;35.05;22.65;;;;;;;8.13;77.28;100365.28;5092822;28;20031;-75
2021/03/06 02:30:04;;;;;;;35.53;22.35;;;;;;;8.26;76.99;100374.47;5092412;28;20039;-76
2021/03/06 02:33:05;;;;;;;35.75;24.50;;;;;;;8.46;75.20;100377.56;5074283;28;20032;-75
2021/03/06 02:35:42;;;;;;;41.67;27.10;;;;;;;8.39;75.95;100369.22;5076380;28;20036;-75
2021/03/06 02:38:14;;;;;;;44.83;28.75;;;;;;;8.33;76.09;100371.00;5091997;28;20035;-75
2021/03/06 02:40:44;;;;;;;36.72;23.55;;;;;;;8.24;76.47;100374.44;5091974;28;20020;-75
2021/03/06 02:43:25;;;;;;;32.20;21.05;;;;;;;8.28;75.44;100371.03;5074406;28;20028;-75
2021/03/06 02:45:53;;;;;;;40.78;25.73;;;;;;;7.40;78.27;100366.06;5090807;28;20521;-75
2021/03/06 02:48:27;;;;;;;36.58;23.38;;;;;;;7.54;78.64;100373.53;5091916;28;20020;-75
2021/03/06 02:51:03;;;;;;;32.30;21.67;;;;;;;8.33;76.09;100376.91;5092033;28;20021;-75
2021/03/06 02:53:57;;;;;;;33.85;21.58;;;;;;;7.96;76.93;100369.72;5092178;28;20036;-75
2021/03/06 02:56:26;;;;;;;34.40;22.08;;;;;;;8.35;77.38;100374.34;5092352;28;20036;-76
2021/03/06 02:59:14;;;;;;;34.60;22.02;;;;;;;8.05;77.53;100383.09;5091925;28;20031;-76
2021/03/06 03:02:27;;;;;;;32.20;22.17;;;;;;;8.10;77.21;100378.81;5091761;28;20545;-76
2021/03/06 03:08:29;;;;;;;27.98;16.70;;;;;;;8.18;77.56;100384.63;5092137;28;20081;-75
2021/03/06 03:11:25;;;;;;;39.15;24.10;;;;;;;8.26;77.43;100387.13;5091733;28;20118;-75
2021/03/06 03:17:13;;;;;;;48.65;27.95;;;;;;;7.80;78.52;100399.41;5091440;28;20085;-75
2021/03/06 03:23:19;;;;;;;45.25;27.05;;;;;;;8.17;77.65;100393.09;5096173;28;20043;-75
2021/03/06 03:25:53;;;;;;;50.78;27.30;;;;;;;8.40;76.56;100413.94;5095792;28;20038;-75
2021/03/06 03:28:35;;;;;;;40.08;24.10;;;;;;;7.98;78.67;100416.09;5095825;28;20032;-75
2021/03/06 03:31:10;;;;;;;34.70;23.35;;;;;;;8.15;77.07;100422.66;5095641;28;20035;-74
2021/03/06 03:33:53;;;;;;;36.35;22.80;;;;;;;7.57;79.92;100429.13;5095291;28;20035;-75
2021/03/06 03:36:35;;;;;;;36.92;22.15;;;;;;;7.89;77.29;100411.97;5095328;28;20035;-75
2021/03/06 03:39:14;;;;;;;34.60;22.83;;;;;;;7.81;78.77;100423.84;5095393;28;20065;-76
2021/03/06 03:42:27;;;;;;;39.67;23.77;;;;;;;7.99;78.09;100422.84;5095630;28;20028;-75
2021/03/06 03:44:55;;;;;;;36.58;22.05;;;;;;;8.01;78.28;100411.84;5095537;28;20036;-75
2021/03/06 03:47:21;;;;;;;39.75;22.90;;;;;;;8.04;77.73;100416.03;5077000;28;20044;-76
2021/03/06 03:49:56;;;;;;;37.20;22.75;;;;;;;8.09;77.23;100416.81;5077199;28;20524;-77
2021/03/06 03:52:35;;;;;;;31.77;20.77;;;;;;;8.28;77.08;100415.81;5095661;28;20042;-77
2021/03/06 03:55:30;;;;;;;31.20;20.30;;;;;;;8.74;75.13;100415.19;5077291;28;20185;-75
2021/03/06 03:58:09;;;;;;;33.45;19.85;;;;;;;8.54;76.46;100396.88;5077559;28;20107;-76
2021/03/06 04:04:27;;;;;;;35.33;20.45;;;;;;;8.68;76.61;100440.63;5096201;28;20039;-75
2021/03/06 04:07:00;;;;;;;31.95;20.92;;;;;;;8.51;76.83;100457.75;5077650;28;20516;-76
2021/03/06 04:09:36;;;;;;;36.72;22.42;;;;;;;8.61;75.66;100436.50;5077734;28;20032;-75
2021/03/06 04:12:11;;;;;;;36.28;23.48;;;;;;;8.82;74.58;100424.38;5076914;28;20450;-75
2021/03/06 04:14:50;;;;;;;35.28;23.83;;;;;;;8.79;73.55;100424.44;5095055;28;20020;-75
2021/03/06 04:17:20;;;;;;;34.38;22.48;;;;;;;8.90;74.34;100440.31;5077228;28;20028;-76
2021/03/06 04:19:48;;;;;;;40.88;27.40;;;;;;;8.40;76.21;100448.56;5076826;28;20028;-75
2021/03/06 04:22:14;;;;;;;37.80;25.17;;;;;;;7.83;78.54;100455.06;5095166;28;20024;-75
2021/03/06 04:24:50;;;;;;;34.20;23.05;;;;;;;7.44;78.56;100441.06;5077012;28;20393;-74
2021/03/06 04:27:18;;;;;;;40.03;24.75;;;;;;;7.42;80.86;100457.09;5076343;28;20089;-75
2021/03/06 04:29:51;;;;;;;37.97;25.35;;;;;;;7.63;78.43;100467.03;5093652;28;20091;-75
2021/03/06 04:32:22;;;;;;;38.00;26.10;;;;;;;7.70;79.01;100453.50;5076470;28;20512;-75
2021/03/06 04:35:15;;;;;;;53.60;33.22;;;;;;;7.69;78.71;100462.78;5094161;28;20062;-75
2021/03/06 04:37:57;;;;;;;45.78;28.13;;;;;;;7.71;79.21;100470.34;5076163;28;20058;-75
2021/03/06 04:40:26;;;;;;;79.63;46.88;;;;;;;7.64;79.02;100463.66;5076439;28;20556;-76
2021/03/06 04:43:03;;;;;;;50.05;33.63;;;;;;;7.63;79.19;100472.94;5076190;28;20128;-75
2021/03/06 04:45:29;;;;;;;47.05;29.42;;;;;;;7.61;79.99;100463.69;5093940;28;20097;-75
2021/03/06 04:48:00;;;;;;;40.80;27.80;;;;;;;7.72;79.86;100470.34;5076148;28;20023;-75
2021/03/06 04:50:36;;;;;;;40.80;29.77;;;;;;;7.60;80.02;100465.38;5076202;28;20379;-75
2021/03/06 04:53:39;;;;;;;43.78;28.80;;;;;;;7.67;80.62;100463.63;5075897;28;20039;-75
2021/03/06 04:56:12;;;;;;;41.33;27.02;;;;;;;7.42;81.09;100444.44;5094374;28;20039;-75
2021/03/06 04:58:37;;;;;;;39.85;27.20;;;;;;;7.57;80.71;100446.84;5094357;28;20020;-76
2021/03/06 05:01:29;;;;;;;40.03;26.52;;;;;;;7.95;79.08;100460.00;5094101;28;20035;-75
2021/03/06 05:04:03;;;;;;;45.47;26.10;;;;;;;7.79;79.49;100456.78;5094110;28;20028;-75
2021/03/06 05:06:31;;;;;;;41.33;26.88;;;;;;;8.01;79.17;100461.63;5093827;28;20148;-75
2021/03/06 05:09:10;;;;;;;41.08;27.58;;;;;;;8.04;77.50;100442.22;5075895;28;20024;-75
2021/03/06 05:14:57;;;;;;;47.20;31.25;;;;;;;7.87;78.81;100484.53;5094028;28;20043;-76
2021/03/06 05:17:31;;;;;;;53.17;33.83;;;;;;;8.01;77.99;100485.25;5075617;28;20020;-75
2021/03/06 05:23:09;;;;;;;67.70;41.15;;;;;;;7.77;78.46;100500.66;5093853;28;20047;-77
2021/03/06 05:25:46;;;;;;;65.90;38.30;;;;;;;7.53;79.12;100480.59;5075974;28;20024;-76
2021/03/06 05:28:52;;;;;;;54.53;33.70;;;;;;;7.93;78.47;100514.88;5075662;28;20024;-77
2021/03/06 05:31:53;;;;;;;56.83;34.13;;;;;;;7.98;78.66;100509.78;5094007;28;20039;-76
2021/03/06 05:34:34;;;;;;;53.03;31.80;;;;;;;7.79;79.38;100501.47;5093465;28;20028;-76
2021/03/06 05:37:31;;;;;;;48.75;30.35;;;;;;;8.45;77.49;100516.09;5075621;28;20024;-76
2021/03/06 05:40:15;;;;;;;45.25;29.15;;;;;;;8.28;77.84;100509.53;5075319;28;20436;-76
2021/03/06 05:42:47;;;;;;;46.60;30.17;;;;;;;8.01;78.73;100519.84;5092891;28;20111;-76
2021/03/06 05:45:12;;;;;;;52.33;32.13;;;;;;;8.41;77.17;100511.91;5093031;28;20085;-76
2021/03/06 05:48:16;;;;;;;72.13;44.47;;;;;;;8.37;77.67;100520.38;5075375;28;20031;-76
2021/03/06 05:50:56;;;;;;;79.35;46.58;;;;;;;8.72;75.94;100522.53;5093096;28;20042;-75
2021/03/06 05:53:40;;;;;;;88.60;51.72;;;;;;;8.74;75.41;100511.50;5093060;28;20028;-76
2021/03/06 05:56:39;;;;;;;85.43;51.30;;;;;;;8.86;75.57;100528.25;5075188;28;20024;-75
2021/03/06 05:59:20;;;;;;;80.53;51.55;;;;;;;8.74;76.22;100526.72;5074829;28;20512;-75
2021/03/06 06:01:55;;;;;;;92.30;55.30;;;;;;;8.85;74.91;100515.63;5074698;28;20094;-75
2021/03/06 06:07:44;;;;;;;230.30;113.53;;;;;;;9.03;73.78;100518.75;5092770;28;20051;-75
2021/03/06 06:10:12;;;;;;;180.40;100.50;;;;;;;9.08;74.64;100537.28;5074677;28;20016;-75
2021/03/06 06:12:47;;;;;;;175.52;95.95;;;;;;;9.45;73.29;100537.59;5074349;28;20032;-75
2021/03/06 06:15:36;;;;;;;132.43;81.80;;;;;;;9.60;70.84;100538.25;5092403;28;20027;-75
2021/03/06 06:18:13;;;;;;;116.18;68.93;;;;;;;9.45;71.98;100543.53;5092359;28;20130;-76
2021/03/06 06:20:43;;;;;;;125.13;70.07;;;;;;;9.96;70.20;100541.06;5092383;28;20023;-75
2021/03/06 06:24:03;;;;;;;83.97;50.05;;;;;;;10.27;67.37;100550.72;5092557;28;20036;-75
2021/03/06 06:26:57;;;;;;;73.80;45.72;;;;;;;10.36;65.67;100559.84;5092886;28;20093;-76
2021/03/06 06:29:45;;;;;;;67.70;40.70;;;;;;;10.72;64.10;100561.72;5074259;28;20028;-76
2021/03/06 06:32:26;;;;;;;44.55;27.52;;;;;;;11.57;60.53;100550.59;5073971;28;20066;-75
2021/03/06 06:35:12;;;;;;;25.63;16.80;;;;;;;12.56;52.84;100551.53;5074061;28;20032;-74
2021/03/06 06:38:06;;;;;;;25.40;15.25;;;;;;;12.99;53.04;100557.16;5073896;28;20035;-76
2021/03/06 06:40:54;;;;;;;25.38;16.80;;;;;;;13.55;50.48;100553.75;5065433;28;20036;-76
2021/03/06 06:43:36;;;;;;;23.60;15.80;;;;;;;13.70;49.12;100553.31;5076046;28;20044;-75
2021/03/06 06:46:02;;;;;;;22.63;16.52;;;;;;;13.62;49.70;100560.38;5067846;28;20110;-80
2021/03/06 06:48:28;;;;;;;23.45;15.77;;;;;;;13.63;49.46;100558.63;5057792;28;20012;-81
2021/03/06 06:51:06;;;;;;;26.88;17.15;;;;;;;13.82;49.55;100567.41;5062888;28;20066;-83
2021/03/06 06:53:33;;;;;;;25.42;16.75;;;;;;;13.56;50.65;100586.09;4703419;28;9999983;-80
2021/03/06 06:55:59;;;;;;;26.73;15.98;;;;;;;13.46;50.85;100584.72;5083494;28;20023;-79
2021/03/06 06:58:37;;;;;;;20.42;14.07;;;;;;;13.45;49.89;100598.34;5069500;28;20016;-81
2021/03/06 07:01:29;;;;;;;24.55;14.30;;;;;;;13.47;49.73;100600.88;5087075;28;20497;-81
2021/03/06 07:04:08;;;;;;;21.77;14.10;;;;;;;13.41;50.20;100603.63;4716881;28;9999682;-84
2021/03/06 07:07:24;;;;;;;22.58;14.52;;;;;;;13.40;49.74;100610.44;5068640;28;20493;-84
2021/03/06 07:10:16;;;;;;;25.55;14.73;;;;;;;13.30;51.18;100614.13;5067713;28;20127;-78
2021/03/06 07:12:54;;;;;;;25.27;14.10;;;;;;;13.26;50.69;100619.34;5056269;28;20062;-81
2021/03/06 07:15:25;;;;;;;29.63;20.10;;;;;;;13.48;50.88;100623.81;5068598;28;20020;-80
2021/03/06 07:17:55;;;;;;;26.50;19.20;;;;;;;13.65;49.75;100629.25;5067949;28;20036;-79
2021/03/06 07:20:24;;;;;;;23.95;16.15;;;;;;;13.73;49.20;100637.53;5068416;28;20266;-80
2021/03/06 07:22:54;;;;;;;24.33;13.88;;;;;;;13.67;49.92;100627.47;5068818;28;20119;-80
2021/03/06 07:25:20;;;;;;;24.92;13.85;;;;;;;13.78;48.81;100639.94;5068818;28;20423;-81
2021/03/06 07:27:46;;;;;;;18.88;12.68;;;;;;;13.89;48.04;100612.31;5068334;28;20100;-83
2021/03/06 07:30:16;;;;;;;20.17;12.70;;;;;;;14.00;47.63;100638.41;5069643;28;20140;-81
2021/03/06 07:32:45;;;;;;;33.75;16.73;;;;;;;13.94;48.38;100638.59;5086773;28;20043;-80
2021/03/06 07:35:14;;;;;;;20.48;13.30;;;;;;;13.59;47.85;100632.00;5069179;28;20471;-79
2021/03/06 07:37:41;;;;;;;20.23;12.88;;;;;;;13.77;48.44;100668.94;5068791;28;20020;-80
2021/03/06 07:40:11;;;;;;;21.90;13.23;;;;;;;13.67;48.54;100652.19;5068426;28;20028;-80
2021/03/06 07:42:57;;;;;;;21.98;12.27;;;;;;;13.92;47.47;100669.28;5069428;28;20527;-81
2021/03/06 07:45:24;;;;;;;20.33;12.43;;;;;;;13.82;48.44;100656.88;5069504;28;20039;-81
2021/03/06 07:47:57;;;;;;;21.95;12.98;;;;;;;13.93;48.58;100660.75;5068971;28;20122;-81
2021/03/06 07:50:28;;;;;;;21.08;12.25;;;;;;;13.64;48.45;100660.81;5086741;28;20032;-82
2021/03/06 07:52:58;;;;;;;23.50;13.68;;;;;;;13.68;48.06;100670.06;5067756;28;20578;-80
2021/03/06 07:55:29;;;;;;;21.50;14.18;;;;;;;13.81;48.83;100671.34;5067719;28;20031;-80
2021/03/06 07:58:16;;;;;;;23.42;12.90;;;;;;;13.56;48.56;100695.13;5068114;28;20055;-80
2021/03/06 08:00:45;;;;;;;21.40;12.90;;;;;;;13.74;48.55;100687.78;5077190;28;20043;-78
2021/03/06 08:03:30;;;;;;;19.33;12.32;;;;;;;13.69;49.29;100686.22;5064444;28;20096;-80
2021/03/06 08:06:00;;;;;;;27.92;15.20;;;;;;;13.81;48.94;100689.25;5055261;28;20064;-78
2021/03/06 08:08:46;;;;;;;25.75;15.88;;;;;;;13.78;48.18;100676.56;5058779;28;20024;-79
2021/03/06 08:11:16;;;;;;;21.30;12.10;;;;;;;13.94;47.71;100674.38;5069643;28;20044;-77
2021/03/06 08:13:47;;;;;;;21.50;11.73;;;;;;;13.85;49.18;100684.88;5070445;28;20100;-77
2021/03/06 08:16:21;;;;;;;24.67;13.25;;;;;;;13.97;48.51;100692.19;5068450;28;20070;-80
2021/03/06 08:18:56;;;;;;;25.98;12.93;;;;;;;13.84;49.05;100691.69;5050085;28;20082;-80
2021/03/06 08:21:37;;;;;;;18.63;11.63;;;;;;;13.62;48.57;100684.72;5051531;28;20063;-81
2021/03/06 08:27:01;;;;;;;31.58;17.67;;;;;;;14.15;48.22;100686.50;5070765;28;20059;-83
2021/03/06 08:29:27;;;;;;;21.02;12.18;;;;;;;13.60;49.21;100681.38;5051807;28;20416;-81
2021/03/06 08:32:18;;;;;;;19.77;12.10;;;;;;;13.61;49.62;100696.66;5071027;28;20024;-80
2021/03/06 08:35:32;;;;;;;18.27;11.57;;;;;;;13.55;49.28;100685.75;5071965;28;20455;-82
2021/03/06 08:37:58;;;;;;;23.42;11.77;;;;;;;13.60;49.15;100683.94;5039469;28;20039;-79
2021/03/06 08:40:27;;;;;;;27.75;14.85;;;;;;;13.35;50.05;100685.50;5071233;28;20028;-82
2021/03/06 08:42:58;;;;;;;21.42;13.25;;;;;;;13.49;49.19;100702.09;5071893;28;20095;-80
2021/03/06 08:45:29;;;;;;;18.08;12.60;;;;;;;13.33;48.62;100693.19;5071463;28;20031;-79
2021/03/06 08:48:06;;;;;;;27.95;15.63;;;;;;;13.37;48.52;100679.47;5067880;28;20040;-78
2021/03/06 08:50:36;;;;;;;19.95;12.27;;;;;;;13.47;49.13;100691.09;5068187;28;20082;-81
2021/03/06 08:53:13;;;;;;;20.10;10.98;;;;;;;13.23;47.25;100708.84;5068439;28;20478;-78
2021/03/06 08:55:43;;;;;;;17.70;11.57;;;;;;;13.32;46.27;100703.47;5066120;28;20028;-80
2021/03/06 08:58:11;;;;;;;17.65;8.82;;;;;;;13.13;45.44;100687.81;5067247;28;20024;-82
2021/03/06 09:00:59;;;;;;;16.52;8.85;;;;;;;13.21;46.07;100700.38;5067625;28;20043;-80
2021/03/06 09:03:26;;;;;;;15.57;8.55;;;;;;;12.74;45.33;100678.59;5068500;28;20039;-80
2021/03/06 09:05:54;;;;;;;11.90;7.75;;;;;;;12.93;45.11;100695.94;5051807;28;20510;-80
2021/03/06 09:08:21;;;;;;;22.25;10.85;;;;;;;13.29;44.15;100666.06;5054100;28;20060;-79
2021/03/06 09:10:47;;;;;;;14.35;8.15;;;;;;;13.23;45.09;100707.09;5051551;28;20107;-78
2021/03/06 09:13:18;;;;;;;20.88;9.90;;;;;;;13.09;44.20;100699.00;5053237;28;20043;-76
2021/03/06 09:16:12;;;;;;;16.93;8.37;;;;;;;13.20;44.75;100725.06;5050781;28;20032;-77
2021/03/06 09:18:48;;;;;;;13.90;8.55;;;;;;;13.18;43.99;100723.41;5051769;28;20033;-78
2021/03/06 09:21:33;;;;;;;25.92;14.55;;;;;;;13.56;44.53;100724.06;5049762;28;20036;-79
2021/03/06 09:24:00;;;;;;;18.48;9.35;;;;;;;13.42;43.83;100715.94;5058966;28;20055;-78
2021/03/06 09:26:28;;;;;;;20.27;10.38;;;;;;;13.40;44.13;100727.06;5049017;28;20055;-79
2021/03/06 09:28:55;;;;;;;16.33;9.88;;;;;;;13.37;44.01;100735.66;5047593;28;20037;-77
2021/03/06 09:31:50;;;;;;;13.38;8.27;;;;;;;13.15;44.97;100754.16;5048324;28;20128;-78
2021/03/06 09:34:26;;;;;;;15.00;10.25;;;;;;;13.32;44.38;100737.50;5047446;28;20396;-76
2021/03/06 09:37:23;;;;;;;20.15;9.43;;;;;;;13.38;44.31;100755.22;5047205;28;20490;-79
2021/03/06 09:39:50;;;;;;;17.40;9.85;;;;;;;13.12;45.98;100736.34;5046785;28;20534;-79
2021/03/06 09:42:17;;;;;;;20.63;10.05;;;;;;;13.14;46.79;100735.44;5047732;28;20096;-78
2021/03/06 09:44:51;;;;;;;11.77;9.10;;;;;;;13.25;46.30;100751.31;5047897;28;20058;-78
2021/03/06 09:47:24;;;;;;;16.75;10.18;;;;;;;13.65;46.77;100763.84;5063642;28;20044;-80
2021/03/06 09:49:54;;;;;;;17.30;10.13;;;;;;;13.43;47.26;100758.47;5050830;28;20478;-80
2021/03/06 09:52:52;;;;;;;18.30;11.50;;;;;;;13.60;46.31;100761.44;5068314;28;20089;-81
2021/03/06 09:55:34;;;;;;;14.52;9.27;;;;;;;12.67;46.96;100767.22;5068975;28;20036;-80
2021/03/06 09:58:19;;;;;;;18.85;9.95;;;;;;;12.71;46.64;100765.44;5051207;28;20112;-78
2021/03/06 10:00:52;;;;;;;19.08;9.73;;;;;;;12.78;46.35;100778.00;5047918;28;20044;-79
2021/03/06 10:03:28;;;;;;;12.13;8.23;;;;;;;12.82;46.35;100771.94;5068242;28;20409;-79
2021/03/06 10:06:04;;;;;;;15.45;9.63;;;;;;;13.36;44.67;100769.75;5049954;28;20121;-79
2021/03/06 10:08:32;;;;;;;13.75;7.45;;;;;;;13.06;43.95;100745.00;5068306;28;20024;-78
2021/03/06 10:10:59;;;;;;;14.05;8.30;;;;;;;13.28;43.59;100761.44;5068840;28;20033;-82
2021/03/06 10:13:25;;;;;;;14.68;6.93;;;;;;;12.76;43.14;100786.56;5063749;28;20031;-78
2021/03/06 10:15:52;;;;;;;17.95;8.27;;;;;;;13.11;42.71;100780.66;5048925;28;20025;-78
2021/03/06 10:18:18;;;;;;;13.48;7.00;;;;;;;12.76;42.89;100779.75;5049311;28;20036;-77
2021/03/06 10:20:48;;;;;;;9.95;6.32;;;;;;;13.18;42.49;100757.47;5048573;28;20449;-77
2021/03/06 10:23:29;;;;;;;15.98;8.35;;;;;;;12.93;43.28;100774.25;5052796;28;20572;-78
2021/03/06 10:26:14;;;;;;;11.90;7.22;;;;;;;13.13;43.05;100771.22;5049139;28;20473;-80
2021/03/06 10:28:43;;;;;;;11.95;6.82;;;;;;;12.78;43.35;100764.41;5047775;28;20119;-79
2021/03/06 10:31:31;;;;;;;24.05;7.43;;;;;;;12.95;43.23;100791.19;5049625;28;20032;-80
2021/03/06 10:33:59;;;;;;;14.50;8.30;;;;;;;12.81;44.88;100797.50;5067265;28;20067;-79
2021/03/06 10:36:25;;;;;;;12.73;7.07;;;;;;;12.82;43.58;100766.00;5049106;28;20079;-79
2021/03/06 10:39:12;;;;;;;13.52;7.63;;;;;;;13.12;43.90;100764.44;5059607;28;20062;-81
2021/03/06 10:41:37;;;;;;;17.67;7.93;;;;;;;12.85;44.64;100781.25;5069072;28;20038;-80
2021/03/06 10:44:05;;;;;;;12.30;6.85;;;;;;;12.52;44.96;100779.50;5065526;28;20032;-79
2021/03/06 10:46:32;;;;;;;19.23;7.95;;;;;;;12.46;45.22;100789.84;5065134;28;20045;-78
2021/03/06 10:49:08;;;;;;;13.30;6.70;;;;;;;12.28;45.40;100770.66;5064916;28;20109;-76
2021/03/06 10:51:52;;;;;;;14.50;8.15;;;;;;;12.67;45.76;100771.50;5064468;28;20031;-78
2021/03/06 10:54:21;;;;;;;12.20;7.32;;;;;;;12.88;45.52;100783.72;5065245;28;20413;-79
2021/03/06 10:56:47;;;;;;;12.25;7.10;;;;;;;12.70;45.31;100795.22;5065485;28;20127;-77
2021/03/06 10:59:32;;;;;;;15.68;8.10;;;;;;;13.01;44.54;100774.91;5065943;28;20132;-78
2021/03/06 11:01:57;;;;;;;12.73;8.45;;;;;;;13.74;44.33;100772.09;5065852;28;20579;-80
2021/03/06 11:04:29;;;;;;;14.85;6.93;;;;;;;12.63;45.60;100803.91;5059798;28;20033;-82
2021/03/06 11:07:07;;;;;;;10.05;6.15;;;;;;;12.41;46.17;100789.09;5046933;28;20474;-83
2021/03/06 11:09:36;;;;;;;8.73;5.68;;;;;;;12.23;46.86;100795.44;5047319;28;20108;-77
2021/03/06 11:12:22;;;;;;;9.85;5.45;;;;;;;12.86;46.66;100801.63;5045626;28;20041;-79
2021/03/06 11:15:15;;;;;;;9.10;5.43;;;;;;;13.39;45.48;100792.66;5045323;28;20036;-80
2021/03/06 11:17:51;;;;;;;;;;;;;;;13.70;44.17;100796.06;5046065;28;20029;-79
2021/03/06 11:20:32;;;;;;;14.43;5.88;;;;;;;13.01;46.05;100785.13;5046704;28;19920;-81
2021/03/06 11:23:08;;;;;;;13.25;5.40;;;;;;;12.50;46.05;100799.13;5047128;28;20033;-79
2021/03/06 11:25:45;;;;;;;8.25;5.05;;;;;;;12.72;46.51;100800.28;5046873;28;20610;-82
2021/03/06 11:28:14;;;;;;;8.48;4.88;;;;;;;12.16;47.94;100788.81;5046368;28;20034;-84
2021/03/06 11:30:42;;;;;;;11.57;4.50;;;;;;;11.86;48.87;100781.78;5046802;28;20055;-83
2021/03/06 11:33:18;;;;;;;11.00;4.00;;;;;;;12.18;47.89;100770.03;5045991;28;20774;-83
2021/03/06 11:35:48;;;;;;;6.78;4.00;;;;;;;12.15;49.07;100789.66;5045992;28;20025;-81
2021/03/06 11:38:19;;;;;;;11.27;4.05;;;;;;;12.83;47.20;100795.75;5045515;28;20438;-83
2021/03/06 11:40:47;;;;;;;7.90;3.72;;;;;;;12.62;47.07;100766.50;5049299;28;20025;-80
2021/03/06 11:43:15;;;;;;;8.13;2.97;;;;;;;12.70;46.03;100796.91;5051437;28;20151;-83
2021/03/06 11:45:41;;;;;;;7.63;3.42;;;;;;;12.76;46.67;100791.66;5051088;28;20486;-80
2021/03/06 11:48:07;;;;;;;7.55;2.72;;;;;;;12.00;47.93;100795.91;5072191;28;20116;-80
2021/03/06 11:50:36;;;;;;;6.45;2.72;;;;;;;11.88;47.88;100806.38;5074973;28;20032;-81
2021/03/06 11:53:09;;;;;;;5.65;2.85;;;;;;;12.02;47.38;100804.38;5075287;28;20064;-82
2021/03/06 11:55:35;;;;;;;3.25;2.20;;;;;;;11.77;47.06;100790.44;5061538;28;20028;-81
2021/03/06 11:58:17;;;;;;;6.57;2.70;;;;;;;11.71;48.13;100805.00;5087247;28;20040;-81
2021/03/06 12:00:42;;;;;;;7.13;3.20;;;;;;;11.68;47.46;100788.09;5057389;28;20032;-81
2021/03/06 12:03:21;;;;;;;9.27;2.92;;;;;;;12.28;45.91;100782.59;5057319;28;20028;-81
2021/03/06 12:06:27;;;;;;;8.48;2.50;;;;;;;12.87;45.61;100805.03;5075389;28;20122;-81
2021/03/06 12:08:53;;;;;;;7.03;2.88;;;;;;;12.67;46.33;100797.00;5057511;28;20047;-80
2021/03/06 12:11:19;;;;;;;5.10;2.17;;;;;;;12.87;46.23;100805.88;5075474;28;20017;-80
2021/03/06 12:13:45;;;;;;;3.35;1.95;;;;;;;12.18;46.77;100805.72;5075023;28;20029;-80
2021/03/06 12:16:29;;;;;;;4.53;2.40;;;;;;;12.08;47.48;100813.63;5057476;28;20036;-83
2021/03/06 12:19:00;;;;;;;8.90;2.30;;;;;;;12.30;46.27;100824.19;5057062;28;20035;-82
2021/03/06 12:21:30;;;;;;;10.00;3.92;;;;;;;12.11;48.52;100823.75;5056802;28;20459;-82
2021/03/06 12:24:02;;;;;;;22.58;13.57;;;;;;;12.40;47.19;100802.75;5057242;28;20509;-81
2021/03/06 12:27:03;;;;;;;7.35;3.20;;;;;;;12.00;47.93;100816.31;5057250;28;20490;-82
2021/03/06 12:29:52;;;;;;;8.73;4.85;;;;;;;13.05;45.42;100815.63;5074779;28;20028;-81